createdAt,value
2023-07-31T00:08:11.579Z,3.25
2023-07-31T00:18:35.705Z,2.15
2023-07-31T00:28:58.181Z,3.53
2023-07-31T00:39:22.841Z,2.65
2023-07-31T00:49:44.675Z,2.80
2023-07-31T01:00:09.597Z,3.00
2023-07-31T01:10:39.001Z,3.05
2023-07-31T01:21:08.756Z,2.50
2023-07-31T01:31:31.362Z,2.92
2023-07-31T01:41:53.442Z,3.40
2023-07-31T01:52:15.425Z,4.90
2023-07-31T02:02:37.514Z,2.92
2023-07-31T02:12:59.429Z,4.10
2023-07-31T02:23:24.294Z,4.78
2023-07-31T02:33:47.360Z,3.35
2023-07-31T02:44:09.362Z,2.92
2023-07-31T02:54:31.372Z,3.35
2023-07-31T03:04:53.411Z,5.78
2023-07-31T03:15:15.217Z,3.53
2023-07-31T03:25:39.349Z,3.38
2023-07-31T03:36:01.306Z,3.10
2023-07-31T03:46:27.676Z,3.80
2023-07-31T03:56:49.570Z,4.45
2023-07-31T04:07:11.511Z,3.00
2023-07-31T04:27:54.888Z,3.63
2023-07-31T04:38:16.817Z,3.60
2023-07-31T04:59:00.039Z,4.70
2023-07-31T05:09:22.104Z,2.92
2023-07-31T05:19:43.893Z,3.67
2023-07-31T05:30:06.424Z,4.65
2023-07-31T05:40:28.307Z,4.57
2023-07-31T05:50:51.909Z,3.05
2023-07-31T06:11:35.710Z,3.85
2023-07-31T06:21:59.855Z,3.78
2023-07-31T06:32:22.377Z,3.65
2023-07-31T06:42:47.441Z,3.75
2023-07-31T06:53:09.543Z,3.35
2023-07-31T07:03:32.186Z,3.15
2023-07-31T07:13:53.941Z,4.05
2023-07-31T07:24:15.827Z,4.35
2023-07-31T07:34:37.689Z,3.35
2023-07-31T07:55:21.051Z,3.85
2023-07-31T08:05:43.732Z,4.57
2023-07-31T08:16:06.168Z,5.07
2023-07-31T08:26:28.186Z,3.42
2023-07-31T08:36:52.994Z,2.50
2023-07-31T08:47:15.178Z,2.95
2023-07-31T08:57:38.503Z,3.25
2023-07-31T09:08:00.232Z,3.45
2023-07-31T09:18:24.230Z,2.50
2023-07-31T09:28:45.980Z,3.72
2023-07-31T09:39:07.800Z,4.22
2023-07-31T09:49:29.720Z,4.25
2023-07-31T10:10:13.162Z,3.53
2023-07-31T10:20:35.602Z,2.92
2023-07-31T10:30:57.529Z,3.45
2023-07-31T10:51:41.125Z,2.85
2023-07-31T11:02:04.582Z,4.20
2023-07-31T11:12:26.350Z,6.93
2023-07-31T11:22:48.546Z,4.07
2023-07-31T11:33:11.490Z,3.70
2023-07-31T11:43:33.556Z,3.38
2023-07-31T11:54:00.995Z,3.05
2023-07-31T12:04:23.422Z,3.60
2023-07-31T12:14:45.453Z,5.68
2023-07-31T12:35:38.455Z,6.80
2023-07-31T12:46:00.647Z,6.88
2023-07-31T12:56:22.822Z,6.20
2023-07-31T13:06:44.615Z,6.85
2023-07-31T13:17:06.814Z,6.20
2023-07-31T13:27:28.911Z,6.28
2023-07-31T13:37:50.598Z,5.50
2023-07-31T13:48:12.727Z,7.18
2023-07-31T13:58:36.761Z,7.57
2023-07-31T14:08:58.875Z,9.05
2023-07-31T14:19:21.136Z,7.97
2023-07-31T14:29:43.424Z,9.18
2023-07-31T14:40:05.940Z,8.90
2023-07-31T14:50:28.067Z,10.27
2023-07-31T15:00:49.847Z,8.13
2023-07-31T15:11:11.977Z,9.13
2023-07-31T15:21:33.720Z,9.57
2023-07-31T15:31:55.329Z,8.13
2023-07-31T15:42:17.454Z,9.07
2023-07-31T15:52:39.285Z,8.32
2023-07-31T16:03:04.120Z,7.85
2023-07-31T16:13:26.397Z,9.38
2023-07-31T16:23:48.374Z,18.58
2023-07-31T16:34:12.630Z,7.22
2023-07-31T16:44:34.336Z,8.40
2023-07-31T16:54:56.033Z,6.82
2023-07-31T17:05:18.200Z,6.90
2023-07-31T17:15:42.499Z,6.13
2023-07-31T17:26:07.019Z,6.85
2023-07-31T17:36:33.763Z,7.07
2023-07-31T17:46:55.545Z,7.28
2023-07-31T17:57:17.270Z,4.65
2023-07-31T18:07:39.088Z,7.07
2023-07-31T18:18:01.163Z,4.55
2023-07-31T18:28:22.998Z,4.90
2023-07-31T18:38:45.195Z,6.50
2023-07-31T18:49:06.787Z,6.43
2023-07-31T18:59:30.905Z,7.97
2023-07-31T19:10:00.086Z,7.68
2023-07-31T19:30:47.820Z,6.97
2023-07-31T19:41:12.917Z,7.85
2023-07-31T19:51:34.734Z,6.75
2023-07-31T20:01:56.712Z,9.63
2023-07-31T20:12:18.970Z,7.07
2023-07-31T20:22:40.742Z,6.65
2023-07-31T20:33:03.258Z,5.75
2023-07-31T20:43:27.131Z,8.57
2023-07-31T20:53:53.208Z,6.45
2023-07-31T21:04:17.469Z,7.03
2023-07-31T21:14:39.255Z,6.78
2023-07-31T21:25:01.286Z,14.88
2023-07-31T21:35:23.013Z,5.28
2023-07-31T21:45:44.665Z,4.97
2023-07-31T21:56:09.242Z,5.80
2023-07-31T22:06:33.367Z,6.78
2023-07-31T22:16:55.854Z,6.90
2023-07-31T22:27:17.828Z,7.05
2023-07-31T22:37:39.886Z,6.68
2023-07-31T22:48:02.266Z,7.55
2023-07-31T22:58:23.961Z,6.95
2023-07-31T23:08:45.940Z,6.95
2023-07-31T23:19:07.781Z,8.35
2023-07-31T23:29:29.765Z,7.20
2023-07-31T23:39:55.017Z,6.30
2023-07-31T23:50:19.100Z,7.18
